createdAt,value
2023-05-16T00:00:14.719Z,98965.66
2023-05-16T00:02:42.267Z,98970.00
2023-05-16T00:05:10.702Z,98978.69
2023-05-16T00:07:37.742Z,98970.31
2023-05-16T00:10:05.102Z,98983.28
2023-05-16T00:12:32.960Z,98997.00
2023-05-16T00:15:00.031Z,99027.31
2023-05-16T00:17:29.009Z,99035.75
2023-05-16T00:19:58.282Z,99025.13
2023-05-16T00:22:26.017Z,99024.41
2023-05-16T00:24:53.276Z,99044.59
2023-05-16T00:27:20.484Z,99058.97
2023-05-16T00:29:49.733Z,99086.00
2023-05-16T00:32:18.685Z,99108.16
2023-05-16T00:34:46.069Z,99119.16
2023-05-16T00:37:14.398Z,99145.66
2023-05-16T00:39:41.579Z,99179.16
2023-05-16T00:42:08.638Z,99190.63
2023-05-16T00:44:35.852Z,99216.16
2023-05-16T00:47:04.175Z,99237.00
2023-05-16T00:49:31.321Z,99243.09
2023-05-16T00:51:58.709Z,99236.97
2023-05-16T00:54:26.930Z,99282.22
2023-05-16T00:56:53.980Z,99315.94
2023-05-16T00:59:21.038Z,99338.38
2023-05-16T01:01:48.258Z,99418.94
2023-05-16T01:04:15.661Z,99444.22
2023-05-16T01:06:42.763Z,99443.38
2023-05-16T01:09:10.295Z,99444.09
2023-05-16T01:11:44.550Z,99444.66
2023-05-16T01:14:30.397Z,99450.03
2023-05-16T01:17:07.278Z,99455.38
2023-05-16T01:19:34.331Z,99472.34
2023-05-16T01:22:05.678Z,99501.84
2023-05-16T01:24:34.760Z,99504.81
2023-05-16T01:27:04.177Z,99501.50
2023-05-16T01:29:31.380Z,99547.13
2023-05-16T01:31:59.319Z,99625.66
2023-05-16T01:34:26.859Z,99652.50
2023-05-16T01:37:00.913Z,99647.97
2023-05-16T01:39:36.287Z,99674.16
2023-05-16T01:42:03.862Z,99690.09
2023-05-16T01:44:36.317Z,99709.34
2023-05-16T01:47:07.882Z,99699.13
2023-05-16T01:49:38.580Z,99700.78
2023-05-16T01:52:16.332Z,99702.47
2023-05-16T01:54:45.157Z,99704.50
2023-05-16T01:57:12.972Z,99707.88
2023-05-16T01:59:40.867Z,99720.94
2023-05-16T02:02:07.894Z,99727.69
2023-05-16T02:04:34.898Z,99742.63
2023-05-16T02:07:02.079Z,99756.84
2023-05-16T02:09:29.103Z,99764.09
2023-05-16T02:11:56.265Z,99755.53
2023-05-16T02:14:25.873Z,99759.38
2023-05-16T02:16:53.031Z,99769.97
2023-05-16T02:19:20.795Z,99771.16
2023-05-16T02:21:47.980Z,99780.22
2023-05-16T02:24:15.030Z,99801.53
2023-05-16T02:26:42.138Z,99807.06
2023-05-16T02:29:09.551Z,99825.34
2023-05-16T02:31:36.636Z,99819.31
2023-05-16T02:34:03.866Z,99835.06
2023-05-16T02:36:30.935Z,99845.13
2023-05-16T02:38:57.990Z,99852.88
2023-05-16T02:41:25.440Z,99842.13
2023-05-16T02:43:52.477Z,99845.63
2023-05-16T02:46:22.697Z,99840.59
2023-05-16T02:48:50.579Z,99845.13
2023-05-16T02:51:18.160Z,99862.06
2023-05-16T02:53:45.299Z,99867.78
2023-05-16T02:56:12.498Z,99868.09
2023-05-16T02:58:40.759Z,99879.66
2023-05-16T03:01:08.052Z,99879.50
2023-05-16T03:03:36.601Z,99872.44
2023-05-16T03:06:03.684Z,99879.31
2023-05-16T03:08:30.781Z,99887.66
2023-05-16T03:10:57.824Z,99892.00
2023-05-16T03:13:25.099Z,99896.72
2023-05-16T03:15:52.786Z,99921.06
2023-05-16T03:18:19.859Z,99913.13
2023-05-16T03:20:47.314Z,99920.81
2023-05-16T03:23:14.351Z,99934.25
2023-05-16T03:25:43.136Z,99940.59
2023-05-16T03:28:10.169Z,99944.28
2023-05-16T03:30:37.272Z,99952.47
2023-05-16T03:33:04.503Z,99954.31
2023-05-16T03:35:32.170Z,99954.63
2023-05-16T03:37:59.239Z,99975.44
2023-05-16T03:40:26.233Z,99979.09
2023-05-16T03:42:53.275Z,99985.81
2023-05-16T03:45:20.292Z,99995.53
2023-05-16T03:47:48.837Z,99996.69
2023-05-16T03:50:16.431Z,99996.16
2023-05-16T03:52:43.947Z,99992.34
2023-05-16T03:55:14.255Z,100003.31
2023-05-16T03:57:44.502Z,100009.81
2023-05-16T04:00:12.588Z,100006.94
2023-05-16T04:02:43.935Z,100022.47
2023-05-16T04:05:11.616Z,100021.81
2023-05-16T04:07:38.646Z,100038.97
2023-05-16T04:10:06.372Z,100050.41
2023-05-16T04:12:33.488Z,100051.03
2023-05-16T04:15:00.524Z,100062.63
2023-05-16T04:17:27.594Z,100079.00
2023-05-16T04:19:54.628Z,100060.13
2023-05-16T04:22:22.870Z,100064.38
2023-05-16T04:24:50.192Z,100049.28
2023-05-16T04:27:17.287Z,100025.69
2023-05-16T04:29:44.844Z,100022.81
2023-05-16T04:32:12.445Z,100051.91
2023-05-16T04:34:40.584Z,100067.47
2023-05-16T04:37:08.497Z,100073.56
2023-05-16T04:39:36.486Z,100081.34
2023-05-16T04:42:04.458Z,100070.44
2023-05-16T04:44:31.726Z,100078.69
2023-05-16T04:46:58.830Z,100088.34
2023-05-16T04:49:26.164Z,100094.94
2023-05-16T04:51:53.160Z,100088.59
2023-05-16T04:54:20.226Z,100091.47
2023-05-16T04:56:47.235Z,100117.75
2023-05-16T04:59:14.916Z,100121.78
2023-05-16T05:01:42.026Z,100116.97
2023-05-16T05:04:09.053Z,100140.91
2023-05-16T05:06:36.093Z,100145.97
2023-05-16T05:09:03.153Z,100146.16
2023-05-16T05:11:30.205Z,100132.91
2023-05-16T05:13:57.232Z,100135.91
2023-05-16T05:16:24.289Z,100160.16
2023-05-16T05:18:51.462Z,100154.94
2023-05-16T05:21:20.254Z,100159.31
2023-05-16T05:23:49.572Z,100174.25
2023-05-16T05:26:17.174Z,100171.41
2023-05-16T05:28:53.985Z,100190.41
2023-05-16T05:31:24.682Z,100162.09
2023-05-16T05:33:51.733Z,100154.03
2023-05-16T05:36:18.756Z,100183.63
2023-05-16T05:38:45.773Z,100206.47
2023-05-16T05:41:13.221Z,100161.69
2023-05-16T05:43:40.489Z,100165.34
2023-05-16T05:46:07.588Z,100133.88
2023-05-16T05:48:34.764Z,100112.19
2023-05-16T05:51:01.819Z,100106.75
2023-05-16T05:53:28.863Z,100096.63
2023-05-16T05:55:55.876Z,100094.56
2023-05-16T05:58:23.176Z,100097.84
2023-05-16T06:00:50.160Z,100100.13
2023-05-16T06:03:17.231Z,100078.06
2023-05-16T06:05:44.363Z,100079.66
2023-05-16T06:08:11.553Z,100073.16
2023-05-16T06:10:38.581Z,100105.84
2023-05-16T06:13:05.643Z,100067.31
2023-05-16T06:15:32.724Z,100024.34
2023-05-16T06:17:59.808Z,100035.72
2023-05-16T06:20:26.935Z,100029.03
2023-05-16T06:22:53.932Z,99988.66
2023-05-16T06:25:21.303Z,99996.06
2023-05-16T06:27:48.327Z,99974.88
2023-05-16T06:30:15.984Z,99976.09
2023-05-16T06:32:43.108Z,99967.16
2023-05-16T06:35:10.253Z,99984.53
2023-05-16T06:37:37.294Z,99962.28
2023-05-16T06:40:04.666Z,99961.16
2023-05-16T06:42:31.749Z,99937.78
2023-05-16T06:44:58.792Z,99964.50
2023-05-16T06:47:26.009Z,99863.50
2023-05-16T06:49:53.083Z,99912.59
2023-05-16T06:52:20.135Z,99921.84
2023-05-16T06:54:47.251Z,99935.19
2023-05-16T06:57:14.286Z,99979.88
2023-05-16T06:59:41.400Z,99984.41
2023-05-16T07:02:08.515Z,99980.47
2023-05-16T07:04:37.863Z,99987.66
2023-05-16T07:07:07.672Z,99976.09
2023-05-16T07:09:35.142Z,100023.56
2023-05-16T07:12:02.180Z,100026.03
2023-05-16T07:14:29.281Z,100019.69
2023-05-16T07:16:56.388Z,99993.44
2023-05-16T07:19:23.634Z,99997.44
2023-05-16T07:21:50.875Z,99996.97
2023-05-16T07:24:17.930Z,100013.69
2023-05-16T07:26:45.164Z,100010.91
2023-05-16T07:29:12.484Z,100026.97
2023-05-16T07:31:39.661Z,100050.00
2023-05-16T07:34:06.810Z,100030.38
2023-05-16T07:36:34.627Z,100006.16
2023-05-16T07:39:01.769Z,100008.47
2023-05-16T07:41:29.557Z,99986.41
2023-05-16T07:43:56.619Z,100002.63
2023-05-16T07:46:23.977Z,100006.34
2023-05-16T07:48:51.070Z,99999.53
2023-05-16T07:51:18.171Z,100003.03
2023-05-16T07:53:45.534Z,99996.66
2023-05-16T07:56:12.929Z,99981.19
2023-05-16T07:58:41.960Z,100003.50
2023-05-16T08:01:09.200Z,100017.16
2023-05-16T08:03:36.866Z,99969.84
2023-05-16T08:06:04.259Z,99984.16
2023-05-16T08:08:31.439Z,99961.41
2023-05-16T08:10:58.539Z,99959.50
2023-05-16T08:13:25.656Z,99999.13
2023-05-16T08:15:53.296Z,99943.28
2023-05-16T08:18:23.677Z,99889.81
2023-05-16T08:20:51.362Z,99851.13
2023-05-16T08:23:18.998Z,99840.22
2023-05-16T08:25:46.230Z,99811.91
2023-05-16T08:28:13.266Z,99784.34
2023-05-16T08:30:42.671Z,99762.13
2023-05-16T08:33:10.458Z,99705.88
2023-05-16T08:35:37.662Z,99752.47
2023-05-16T08:38:04.960Z,99694.06
2023-05-16T08:40:32.110Z,99587.97
2023-05-16T08:42:59.361Z,99534.22
2023-05-16T08:45:27.130Z,99540.47
2023-05-16T08:47:55.910Z,99511.66
2023-05-16T08:50:24.152Z,99561.00
2023-05-16T08:52:52.294Z,99519.44
2023-05-16T08:55:19.967Z,99413.22
2023-05-16T08:57:47.459Z,99326.19
2023-05-16T09:00:15.055Z,99259.34
2023-05-16T09:02:43.198Z,99233.34
2023-05-16T09:05:14.650Z,99194.47
2023-05-16T09:07:42.408Z,99126.44
2023-05-16T09:10:09.864Z,99057.19
2023-05-16T09:12:37.232Z,99000.31
2023-05-16T09:15:05.139Z,99010.38
2023-05-16T09:17:40.165Z,98940.84
2023-05-16T09:20:11.429Z,98984.47
2023-05-16T09:22:39.118Z,98895.78
2023-05-16T09:25:08.579Z,98916.25
2023-05-16T09:27:40.922Z,98867.41
2023-05-16T09:30:09.644Z,98893.56
2023-05-16T09:32:36.822Z,98869.66
2023-05-16T09:35:04.062Z,98854.59
2023-05-16T09:37:33.036Z,98846.69
2023-05-16T09:40:00.197Z,98860.09
2023-05-16T09:42:27.480Z,98824.69
2023-05-16T09:44:56.179Z,98873.66
2023-05-16T09:47:23.312Z,98894.47
2023-05-16T09:49:53.836Z,98840.56
2023-05-16T09:52:21.187Z,98821.91
2023-05-16T09:54:51.409Z,98774.16
2023-05-16T09:57:19.574Z,98697.22
2023-05-16T09:59:46.720Z,98660.78
2023-05-16T10:02:14.262Z,98593.00
2023-05-16T10:04:41.562Z,98615.16
2023-05-16T10:07:09.830Z,98619.91
2023-05-16T10:09:39.490Z,98546.50
2023-05-16T10:12:08.361Z,98487.84
2023-05-16T10:14:39.105Z,98480.09
2023-05-16T10:17:12.174Z,98432.34
2023-05-16T10:19:40.136Z,98414.94
2023-05-16T10:22:07.329Z,98340.38
2023-05-16T10:24:43.802Z,98265.25
2023-05-16T10:27:11.620Z,98232.22
2023-05-16T10:29:50.363Z,98299.44
2023-05-16T10:32:23.391Z,98294.97
2023-05-16T10:34:51.169Z,98153.75
2023-05-16T10:37:18.538Z,98066.19
2023-05-16T10:39:46.307Z,98080.13
2023-05-16T10:42:18.185Z,98014.69
2023-05-16T10:44:54.810Z,97990.81
2023-05-16T10:47:29.775Z,97853.22
2023-05-16T10:49:57.193Z,97793.34
2023-05-16T10:52:32.592Z,97776.19
2023-05-16T10:55:02.047Z,97772.34
2023-05-16T10:57:29.213Z,97668.78
2023-05-16T11:00:01.550Z,97698.72
2023-05-16T11:02:30.417Z,97654.22
2023-05-16T11:04:59.687Z,97643.69
2023-05-16T11:07:31.364Z,97615.19
2023-05-16T11:10:04.618Z,97571.09
2023-05-16T11:12:45.221Z,97559.50
2023-05-16T11:15:23.430Z,97509.97
2023-05-16T11:17:50.624Z,97511.47
2023-05-16T11:20:41.093Z,97466.16
2023-05-16T11:23:17.432Z,97419.56
2023-05-16T11:25:50.643Z,97416.16
2023-05-16T11:28:19.204Z,97373.34
2023-05-16T11:30:50.421Z,97403.53
2023-05-16T11:33:17.617Z,97360.47
2023-05-16T11:36:13.945Z,97352.28
2023-05-16T11:38:43.710Z,97362.75
2023-05-16T11:41:11.653Z,97408.31
2023-05-16T11:43:40.473Z,97345.16
2023-05-16T11:46:11.080Z,97293.81
2023-05-16T11:48:38.336Z,97292.13
2023-05-16T11:51:05.606Z,97365.56
2023-05-16T11:53:33.693Z,97370.66
2023-05-16T11:56:02.264Z,97319.94
2023-05-16T11:58:29.581Z,97355.16
2023-05-16T12:00:57.126Z,97387.97
2023-05-16T12:03:24.385Z,97337.25
2023-05-16T12:05:53.429Z,97360.47
2023-05-16T12:08:24.637Z,97370.69
2023-05-16T12:10:53.027Z,97396.44
2023-05-16T12:13:21.587Z,97471.34
2023-05-16T12:15:48.854Z,97490.63
2023-05-16T12:18:16.345Z,97439.31
2023-05-16T12:20:44.258Z,97404.69
2023-05-16T12:23:12.538Z,97401.25
2023-05-16T12:25:45.934Z,97395.84
2023-05-16T12:28:13.974Z,97440.53
2023-05-16T12:30:46.738Z,97476.06
2023-05-16T12:33:15.641Z,97531.69
2023-05-16T12:35:44.020Z,97596.47
2023-05-16T12:38:12.355Z,97641.28
2023-05-16T12:40:40.534Z,97666.81
2023-05-16T12:43:13.534Z,97669.59
2023-05-16T12:45:41.415Z,97710.53
2023-05-16T12:48:12.273Z,97714.78
2023-05-16T12:50:40.365Z,97714.47
2023-05-16T12:53:10.943Z,97710.84
2023-05-16T12:55:38.084Z,97687.09
2023-05-16T12:58:05.225Z,97737.75
2023-05-16T13:00:32.453Z,97762.06
2023-05-16T13:02:59.654Z,97790.00
2023-05-16T13:05:26.808Z,97801.34
2023-05-16T13:07:54.443Z,97779.00
2023-05-16T13:10:21.520Z,97766.06
2023-05-16T13:12:48.816Z,97811.44
2023-05-16T13:15:15.916Z,97773.59
2023-05-16T13:17:46.236Z,97802.75
2023-05-16T13:20:15.071Z,97756.06
2023-05-16T13:22:43.319Z,97759.34
2023-05-16T13:25:10.948Z,97725.28
2023-05-16T13:27:41.308Z,97722.66
2023-05-16T13:30:08.714Z,97683.50
2023-05-16T13:32:36.072Z,97679.97
2023-05-16T13:35:04.147Z,97658.25
2023-05-16T13:37:31.991Z,97672.22
2023-05-16T13:39:59.062Z,97696.63
2023-05-16T13:42:26.155Z,97687.94
2023-05-16T13:44:53.195Z,97705.34
2023-05-16T13:47:20.925Z,97729.66
2023-05-16T13:49:48.828Z,97755.72
2023-05-16T13:52:16.377Z,97790.38
2023-05-16T13:54:43.446Z,97827.97
2023-05-16T13:57:10.622Z,97877.69
2023-05-16T14:00:04.042Z,97908.53
2023-05-16T14:02:26.350Z,97965.72
2023-05-16T14:04:53.921Z,98023.81
2023-05-16T14:07:21.107Z,98079.72
2023-05-16T14:09:48.167Z,98136.09
2023-05-16T14:12:15.412Z,98145.97
2023-05-16T14:14:42.528Z,98123.19
2023-05-16T14:17:09.624Z,98132.94
2023-05-16T14:19:36.814Z,98172.63
2023-05-16T14:22:03.985Z,98181.47
2023-05-16T14:24:31.012Z,98155.84
2023-05-16T14:26:58.380Z,98171.84
2023-05-16T14:29:26.064Z,98162.91
2023-05-16T14:31:53.388Z,98131.53
2023-05-16T14:34:22.237Z,98153.28
2023-05-16T14:36:49.631Z,98135.75
2023-05-16T14:39:17.523Z,98148.59
2023-05-16T14:41:44.569Z,98129.41
2023-05-16T14:44:11.907Z,98079.22
2023-05-16T14:46:39.059Z,98099.19
2023-05-16T14:49:06.199Z,98035.50
2023-05-16T14:51:33.314Z,97957.28
2023-05-16T14:54:00.631Z,97930.56
2023-05-16T14:56:28.166Z,97887.72
2023-05-16T14:58:55.374Z,97887.72
2023-05-16T15:01:22.654Z,97865.09
2023-05-16T15:03:56.055Z,97853.81
2023-05-16T15:06:26.815Z,97856.50
2023-05-16T15:08:54.004Z,97887.53
2023-05-16T15:11:21.839Z,97925.28
2023-05-16T15:13:49.181Z,97876.56
2023-05-16T15:16:16.766Z,97862.56
2023-05-16T15:18:44.105Z,97852.03
2023-05-16T15:21:11.217Z,97828.19
2023-05-16T15:23:38.373Z,97837.44
2023-05-16T15:26:05.448Z,97803.81
2023-05-16T15:28:32.548Z,97810.34
2023-05-16T15:30:59.599Z,97823.16
2023-05-16T15:33:26.793Z,97805.09
2023-05-16T15:35:53.846Z,97795.69
2023-05-16T15:38:21.816Z,97815.66
2023-05-16T15:40:55.044Z,97798.91
2023-05-16T15:43:28.600Z,97807.47
2023-05-16T15:45:55.982Z,97810.88
2023-05-16T15:48:23.095Z,97805.28
2023-05-16T15:50:50.702Z,97811.25
2023-05-16T15:53:17.748Z,97840.00
2023-05-16T15:55:47.934Z,97842.25
2023-05-16T15:58:15.011Z,97831.84
2023-05-16T16:00:42.744Z,97822.69
2023-05-16T16:03:10.041Z,97839.97
2023-05-16T16:05:39.040Z,97825.88
2023-05-16T16:08:06.097Z,97815.31
2023-05-16T16:10:33.178Z,97823.06
2023-05-16T16:13:01.242Z,97837.94
2023-05-16T16:15:30.329Z,97866.09
2023-05-16T16:18:00.551Z,97863.75
2023-05-16T16:20:28.174Z,97857.53
2023-05-16T16:22:55.252Z,97844.25
2023-05-16T16:25:22.366Z,97851.19
2023-05-16T16:27:49.691Z,97855.38
2023-05-16T16:30:16.846Z,97837.19
2023-05-16T16:32:44.046Z,97830.56
2023-05-16T16:35:11.666Z,97829.03
2023-05-16T16:37:39.104Z,97838.63
2023-05-16T16:40:09.700Z,97838.25
2023-05-16T16:42:38.575Z,97855.47
2023-05-16T16:45:06.012Z,97856.72
2023-05-16T16:47:33.505Z,97886.50
2023-05-16T16:50:01.379Z,97883.50
2023-05-16T16:52:28.808Z,97898.69
2023-05-16T16:54:56.033Z,97918.50
2023-05-16T16:57:23.278Z,97913.91
2023-05-16T16:59:50.715Z,97939.38
2023-05-16T17:02:17.925Z,97954.72
2023-05-16T17:04:45.024Z,97964.75
2023-05-16T17:07:12.085Z,97962.34
2023-05-16T17:09:42.099Z,97980.00
2023-05-16T17:12:14.829Z,97990.81
2023-05-16T17:14:44.669Z,98017.34
2023-05-16T17:17:11.838Z,98054.41
2023-05-16T17:19:38.980Z,98068.31
2023-05-16T17:22:07.275Z,98098.94
2023-05-16T17:24:34.430Z,98111.16
2023-05-16T17:27:01.781Z,98119.03
2023-05-16T17:29:28.939Z,98121.97
2023-05-16T17:31:56.171Z,98143.09
2023-05-16T17:34:23.417Z,98144.38
2023-05-16T17:36:50.611Z,98153.31
2023-05-16T17:39:18.049Z,98178.34
2023-05-16T17:41:45.137Z,98185.38
2023-05-16T17:44:12.617Z,98195.34
2023-05-16T17:46:40.504Z,98209.00
2023-05-16T17:49:08.057Z,98223.69
2023-05-16T17:51:52.175Z,98250.00
2023-05-16T17:54:20.472Z,98245.84
2023-05-16T17:56:48.594Z,98258.28
2023-05-16T17:59:16.291Z,98275.03
2023-05-16T18:01:43.633Z,98267.81
2023-05-16T18:04:10.848Z,98256.69
2023-05-16T18:06:38.267Z,98244.69
2023-05-16T18:09:10.421Z,98249.47
2023-05-16T18:11:38.893Z,98236.81
2023-05-16T18:14:08.794Z,98227.34
2023-05-16T18:16:36.085Z,98219.88
2023-05-16T18:19:04.850Z,98208.78
2023-05-16T18:21:32.175Z,98211.66
2023-05-16T18:23:59.532Z,98226.56
2023-05-16T18:26:28.079Z,98223.66
2023-05-16T18:28:55.754Z,98231.94
2023-05-16T18:31:22.845Z,98230.31
2023-05-16T18:33:50.017Z,98234.63
2023-05-16T18:36:17.128Z,98235.47
2023-05-16T18:38:44.376Z,98241.47
2023-05-16T18:41:11.505Z,98246.84
2023-05-16T18:43:38.549Z,98257.16
2023-05-16T18:46:05.656Z,98268.09
2023-05-16T18:48:35.344Z,98278.44
2023-05-16T18:51:03.385Z,98277.19
2023-05-16T18:53:30.814Z,98275.97
2023-05-16T18:55:58.554Z,98279.88
2023-05-16T18:58:25.675Z,98284.84
2023-05-16T19:00:52.925Z,98306.09
2023-05-16T19:03:20.089Z,98326.13
2023-05-16T19:05:47.525Z,98340.38
2023-05-16T19:08:14.743Z,98352.97
2023-05-16T19:10:41.905Z,98362.03
2023-05-16T19:13:09.121Z,98375.66
2023-05-16T19:15:39.668Z,98381.41
2023-05-16T19:18:06.852Z,98388.03
2023-05-16T19:20:34.707Z,98408.84
2023-05-16T19:23:03.221Z,98407.19
2023-05-16T19:25:30.411Z,98415.38
2023-05-16T19:27:57.491Z,98425.94
2023-05-16T19:30:24.873Z,98424.69
2023-05-16T19:32:52.030Z,98437.25
2023-05-16T19:35:19.541Z,98453.94
2023-05-16T19:37:46.770Z,98450.19
2023-05-16T19:40:16.938Z,98455.16
2023-05-16T19:42:44.524Z,98464.59
2023-05-16T19:45:11.658Z,98479.44
2023-05-16T19:47:41.600Z,98495.06
2023-05-16T19:50:12.052Z,98491.34
2023-05-16T19:52:39.155Z,98505.56
2023-05-16T19:55:06.780Z,98517.50
2023-05-16T19:57:33.876Z,98520.19
2023-05-16T20:00:00.951Z,98524.84
2023-05-16T20:02:28.095Z,98536.53
2023-05-16T20:04:55.242Z,98558.63
2023-05-16T20:07:25.853Z,98564.75
2023-05-16T20:09:53.096Z,98556.09
2023-05-16T20:12:21.333Z,98572.16
2023-05-16T20:14:48.878Z,98568.59
2023-05-16T20:17:18.702Z,98581.34
2023-05-16T20:19:46.603Z,98589.94
2023-05-16T20:22:13.733Z,98594.47
2023-05-16T20:24:40.926Z,98587.31
2023-05-16T20:27:07.971Z,98599.69
2023-05-16T20:29:37.521Z,98591.00
2023-05-16T20:32:06.148Z,98597.59
2023-05-16T20:34:33.272Z,98613.00
2023-05-16T20:37:00.494Z,98621.06
2023-05-16T20:39:28.780Z,98633.34
2023-05-16T20:41:55.972Z,98644.06
2023-05-16T20:44:23.148Z,98648.31
2023-05-16T20:46:50.680Z,98661.25
2023-05-16T20:49:17.725Z,98679.34
2023-05-16T20:51:44.754Z,98689.63
2023-05-16T20:54:12.879Z,98707.31
2023-05-16T20:56:39.928Z,98705.59
2023-05-16T20:59:07.004Z,98716.94
2023-05-16T21:01:34.068Z,98717.03
2023-05-16T21:04:01.603Z,98721.75
2023-05-16T21:06:28.725Z,98730.13
2023-05-16T21:08:56.030Z,98727.00
2023-05-16T21:11:23.350Z,98730.88
2023-05-16T21:13:50.417Z,98741.09
2023-05-16T21:16:19.038Z,98745.34
2023-05-16T21:18:46.148Z,98758.47
2023-05-16T21:21:13.378Z,98776.34
2023-05-16T21:23:40.512Z,98791.59
2023-05-16T21:26:07.576Z,98802.00
2023-05-16T21:28:39.665Z,98806.97
2023-05-16T21:31:13.277Z,98819.00
2023-05-16T21:33:40.341Z,98836.91
2023-05-16T21:36:07.484Z,98851.31
2023-05-16T21:38:34.523Z,98858.50
2023-05-16T21:41:01.587Z,98875.56
2023-05-16T21:43:28.644Z,98865.56
2023-05-16T21:45:55.936Z,98889.66
2023-05-16T21:48:23.080Z,98897.03
2023-05-16T21:50:52.212Z,98900.41
2023-05-16T21:53:19.505Z,98917.19
2023-05-16T21:55:46.687Z,98938.22
2023-05-16T21:58:13.784Z,98936.91
2023-05-16T22:00:41.338Z,98950.84
2023-05-16T22:03:08.457Z,98958.88
2023-05-16T22:05:35.536Z,98969.09
2023-05-16T22:08:02.818Z,98980.78
2023-05-16T22:10:30.022Z,98990.16
2023-05-16T22:12:57.043Z,98999.88
2023-05-16T22:15:24.211Z,99021.44
2023-05-16T22:17:51.695Z,99025.66
2023-05-16T22:20:18.847Z,99038.66
2023-05-16T22:22:46.076Z,99051.06
2023-05-16T22:25:13.103Z,99065.94
2023-05-16T22:27:40.237Z,99082.66
2023-05-16T22:30:07.619Z,99105.75
2023-05-16T22:32:34.742Z,99121.28
2023-05-16T22:35:01.830Z,99151.69
2023-05-16T22:37:28.927Z,99161.75
2023-05-16T22:39:57.046Z,99199.81
2023-05-16T22:42:24.172Z,99223.41
2023-05-16T22:44:51.310Z,99244.97
2023-05-16T22:47:18.387Z,99267.50
2023-05-16T22:49:45.572Z,99287.75
2023-05-16T22:52:12.642Z,99365.97
2023-05-16T22:54:41.579Z,99385.69
2023-05-16T22:57:08.694Z,99403.88
2023-05-16T22:59:36.032Z,99430.47
2023-05-16T23:02:03.096Z,99441.84
2023-05-16T23:04:30.436Z,99450.53
2023-05-16T23:06:57.494Z,99471.56
2023-05-16T23:09:24.607Z,99487.94
2023-05-16T23:11:51.735Z,99498.94
2023-05-16T23:14:18.842Z,99516.69
2023-05-16T23:16:45.900Z,99513.09
2023-05-16T23:19:13.002Z,99526.97
2023-05-16T23:21:40.126Z,99541.16
2023-05-16T23:24:07.186Z,99539.78
2023-05-16T23:26:34.270Z,99549.63
2023-05-16T23:29:01.329Z,99555.16
2023-05-16T23:31:28.403Z,99556.31
2023-05-16T23:33:56.189Z,99543.88
2023-05-16T23:36:23.348Z,99545.19
2023-05-16T23:38:50.818Z,99539.50
2023-05-16T23:41:18.126Z,99524.09
2023-05-16T23:43:45.220Z,99524.09
2023-05-16T23:46:12.279Z,99513.72
2023-05-16T23:48:39.961Z,99503.66
2023-05-16T23:51:07.759Z,99493.81
2023-05-16T23:53:35.275Z,99490.47
2023-05-16T23:56:02.423Z,99480.94
2023-05-16T23:58:29.482Z,99461.53
